MET: Información y Pronóstico Aeronáutico

MET: Información y Pronóstico Aeronáutico

///////////////////////////////////////////////////////////////////////////////////////////////////////////////////////////////////////////////////////////////////////////////////////////////////////////////////////////////////////////////

24 DE ABRIL 2018

INFORMACION METEOROLOGICA AERONAUTICA (METAR) 18:00 UTC

Aeropuerto AEROPARQUE J. NEWBERY

24 - 18:00 METAR SABE 241800Z 10017KT 9999 FEW015 OVC025 21/18 Q1018 NOSIG =

Aeropuerto BAHIA BLANCA

24 - 18:00 METAR SAZB 241800Z 05015KT 8000 -RA FEW030 OVC050 12/10 Q1020 =

Aeropuerto BARILOCHE

24 - 18:00 METAR SAZS 241800Z 31006KT 280V340 CAVOK 12/02 Q1018 =

Aeropuerto EL CALAFATE

24 - 18:00 METAR SAWC 241800Z 34005KT 9999 FEW030 SCT200 15/M01 Q1006 =

Aeropuerto EZEIZA

24 - 18:00 METAR SAEZ 241700Z 07013KT 9999 SCT027 BKN034 22/17 Q1019 NOSIG =

Aeropuerto EL PALOMAR

24 - 18:00 METAR SADP 241800Z 09009KT 9999 OVC025 21/17 Q1018 =

Aeropuerto IGUAZU/CATARATAS

24 - 18:00 METAR SARI 241800Z 05006KT 9999 FEW040 31/18 Q1017 =

Aeropuerto JUJUY

24 - 17:00 METAR SASJ 241700Z 09005KT 360V150 9999 FEW020 24/19 Q1017 =

Aeropuerto MAR DEL PLATA

24 - 18:00 METAR SAZM 241800Z 10010KT 060V120 9999 SCT021 BKN100 BKN200 18/13 Q1023 =

Aeropuerto MENDOZA

24 - 18:00 METAR SAME 241700Z 14008KT 9999 BKN045 19/13 Q1015 =

Aeropuerto CHAPELCO

24 - 18:00 METAR SAZY 241800Z 00000KT 9999 FEW045 15/07 Q1016 =

Aeropuerto COMODORO RIVADAVIA

24 - 18:00 METAR SAVC 241800Z 32011KT 250V350 CAVOK 17/04 Q1016 =

Aeropuerto CORDOBA

24 - 18:00 METAR SACO 241800Z 05009KT 9999 SCT008 SCT014 22/18 Q1016 =

Aeropuerto NEUQUEN

24 - 18:00 METAR SAZN 241800Z 14003KT 9999 SCT045 17/10 Q1018 =

Aeropuerto POSADAS

24 - 18:00 METAR SARP 241800Z 29003KT 9999 FEW035 SCT100 31/20 Q1016 =

Aeropuerto RESISTENCIA

24 - 18:00 METAR SARE 241800Z 18008KT 9999 SCT012 BKN085 23/21 Q1016 =

Aeropuerto RIO GRANDE

24 - 18:00 METAR SAWE 241800Z 32016KT 9999 FEW020 SCT070 12/02 Q1003 =

Aeropuerto ROSARIO

24 - 18:00 METAR SAAR 241800Z 02009KT 9999 SCT009 BKN013 OVC015 22/19 Q1017 =

Aeropuerto SALTA

24 - 18:00 METAR SASA 241800Z 05005KT 9999 SCT018TCU FEW022 24/17 Q1017 =

Aeropuerto SAN FERNANDO

24 - 18:00 METAR SADF 241800Z 09009KT 9999 OVC020 21/17 Q1018 =

Aeropuerto SANTA ROSA

24 - 18:00 METAR SAZR 241800Z 05013KT 2500 BR BKN008 BKN025 16/16 Q1016 =

Aeropuerto TRELEW

24 - 18:00 METAR SAVT 241800Z 32009KT CAVOK 18/00 Q1019 =

Aeropuerto TUCUMAN

24 - 18:00 METAR SANT 241800Z 09011KT 8000 SCT015 BKN030 23/19 Q1014 =

Aeropuerto USHUAIA

24 - 18:00 METAR SAWH 241800Z 32015G31KT 9999 SCT045 12/04 Q0999 =

 

 PRONOSTICO DE AERODROMO (TAF) 17:00 UTC

 

Estación AEROPARQUE J. NEWBERY

24 - 17:00 TAF SABE 241700Z 2418/2518 19015KT 9999 SCT015 BKN025 TX24/2518Z TN19/2509Z BECMG 2422/2500 06005KT 4000 RADZ BKN008 OVC015 BECMG 2507/2509 34005KT 8000 OVC008 BECMG 2512/2514 9999 NSW SCT020 =

Estación BAHIA BLANCA

24 - 17:00 TAF SAZB 241700Z 2418/2518 02015KT 5000 RA BR SCT020 OVC040 TX14/2518Z TN11/2416Z TEMPO 2418/2421 3000 TSRA SCT025 FEW030CB OVC040 BECMG 2500/2502 6000 RADZ BKN015 OVC030 BECMG 2507/2509 34010KT BKN008 BKN020 =

Estación BARILOCHE

24 - 17:00 TAF SAZS 241700Z 2418/2518 34005KT CAVOK TX16/2518Z TN00/2511Z BECMG 2506/2508 27005KT BECMG 2515/2517 31015G25KT =

Estación EL CALAFATE

24 - 17:00 TAF SAWC 241700Z 2418/2518 07005KT 9999 FEW030 SCT200 TX13/2419Z TN03/2512Z =

Estación EZEIZA

24 - 17:00 SAEZ 241700

Estación EL PALOMAR

24 - 17:00 TAF SADP 241700Z 2418/2518 09010KT 9999 OVC025 TX24/2518Z TN17/2510Z TEMPO 2419/2423 8000 DZ BR BECMG 2501/2503 05010G25KT 5000 TSRA BKN010 FEW030CB OVC030 TEMPO 2502/2506 2000 +TSRA BECMG 2507/2509 29005KT 5000 BR BKN005 PROB40 2509/2512 0700 FG OVC003 BECMG 2513/2515 9999 NSW BKN025 =

Estación IGUAZU/CATARATAS

24 - 17:00 TAF SARI 241700Z 2418/2518 02005KT 9999 SCT025 TX32/2518Z TN20/2509Z =

Estación JUJUY

24 - 17:00 TAF SASJ 241700Z 2418/2518 05010KT 9999 SCT020 FEW040CB TX22/2519Z TN16/2511Z BECMG 2421/2500 02005KT 9999 VCTS SCT020 FEW035CB PROB30 TEMPO 2505/2508 02005KT 9999 TSRA SCT010 BKN020 FEW035CB =

Estación MAR DEL PLATA

24 - 17:00 TAF SAZM 241700Z 2418/2518 09010KT 9999 SCT019 SCT023 OVC070 TX20/2518Z TN15/2010Z PROB40 2420/2422 7000 SHRA BKN018 SCT025TCU OVC070 BECMG 2503/2506 05015KT 6000 RADZ BKN020 OVC040 BECMG 2509/2512 5000 TSRA SCT008 BKN015 FEW035CB TEMPO 2515/2518 7000 RADZ SCT015 BKN035 =

Estación MENDOZA

24 - 17:00 TAF SAME 241700Z 2418/2518 14005KT 9999 BKN040 SCT070 TX22/2419Z TN13/2510Z PROB30 2501/2505 6000 DZBR BKN030 SCT040 BECMG 2514/2516 05005KT 9999 SCT040 SCT080 =

Estación CHAPELCO

24 - 17:00 TAF SAZY 241700Z 2418/2518 VRB03KT CAVOK TX16/2518Z TN01/2512Z =

Estación COMODORO RIVADAVIA

24 - 17:00 TAF SAVC 241700Z 2418/2518 29015KT CAVOK TX18/2419Z TN07/2512Z BECMG 2423/2501 34010KT =

Estación CORDOBA

24 - 17:00 TAF SACO 241700Z 2418/2518 05003KT 3000 DZ BKN005 BKN012 TX23/2519Z TN18/2511Z BECMG 2500/2503 09005KT 1000 DZ FG OVC005 PROB30 TEMPO 2508/2510 07005KT 0600 DZ BR OVC005 BECMG 2516/2518 05005KT 9999 SCT020 BKN30 =

Estación NEUQUEN

24 - 17:00 TAF SAZN 241700Z 2418/2518 14010KT 9999 SCT030 BKN090 TX22/2518Z TN06/2509Z BECMG 2423/2501 10005KT SCT015 BKN030 BECMG 2505/2507 SCT008 BKN010 BECMG 2512/2514 04010KT SCT020 BECMG 2516/2518 CAVOK =

Estación POSADAS

24 - 17:00 TAF SARP 241700Z 2418/2518 05005KT 9999 SCT025 TX32/2518Z TN20/2509Z =

Estación RESISTENCIA

24 - 17:00 TAF SARE 241700Z 2418/2518 20005KT 9999 SCT015 BKN090 TX30/2518Z TN20/2509Z BECMG 2423/2424 09005KT PROB40 2508/2512 3000 BR =

Estación RIO GRANDE

24 - 17:00 TAF SAWE 241700Z 2418/2518 29018KT 9999 SCT020 BKN100 TX12/2419Z TN04/2512Z =

Estación ROSARIO

24 - 17:00 TAF SAAR 241700Z 2418/2518 09010KT 9999 BKN008 OVC015 TX23/2418Z TN16/2509Z BECMG 2523/2501 5000 TSRA BKN006 FEW030CB OVC040 BECMG 2504/2506 3000 RADZ BR BKN005 OVC010 BECMG 2509/2511 9999 NSW BKN015 OVC090 =

Estación SALTA

24 - 17:00 TAF SASA 241700Z 2418/2518 05010KT 9999 SCT020 FEW040CB TX22/2519Z TN16/2511Z PROB30 TEMPO 2421/2500 02005KT 7000 SCT015 BKN025 BECMG 2505/2508 02005KT 9999 TSRA SCT010 BKN020 FEW035CB =

Estación SAN FERNANDO

24 - 17:00 TAF SADF 241700Z 2418/2518 05015KT 9999 SCT020 OVC030 TX25/2518Z TN19/2510Z BECMG 2419/2421 8000 RA BKN015 FEW040TCU OVC050 BECMG 2422/2424 09015G25KT 4000 TSRA BKN010 FEW040CB OVC050 BECMG 2506/2508 25010KT 5000 DZBR OVC008 =

Estación SANTA ROSA

24 - 17:00 TAF SAZR 241700Z 2418/2518 05015KT 2000 TSRA BR BKN006 BKN025 FEW050CB TX16/2518Z TN15/2414Z BECMG 2419/2422 5000 RADZ BKN008 OVC030 BECMG 2500/2502 18005KT BECMG 2512/2514 8000 BKN015 BKN025 =

Estación TRELEW

24 - 17:00 TAF SAVT 241700Z 2418/2518 32010KT CAVOK TX18/2419Z TN10/2512Z =

Estación TUCUMAN

24 - 17:00 TAF SANT 241700Z 2418/2518 07005KT 7000 SCT015 BKN025 TX27/2519Z TN20/2511Z BECMG 2421/2500 14005KT 9999 SCT010 BKN020 PROB30 TEMPO 2508/2510 02005KT 5000 BR SCT006 BKN015 BECMG 2516/2518 05005KT 9999 SCT020 BKN035 =

Estación USHUAIA

24 - 17:00 TAF SAWH 241700Z 2418/2518 36015G25KT 9999 SCT040 SCT100 BECMG 2423/2501 VRB05KT BKN030 BKN060 =